Time;durP1;ratioP1;P1;durP2;ratioP2;P2;SDS_P1;SDS_P2;PMS_P1;PMS_P2;Temp;Humidity;BMP_temperature;BMP_pressure;BME280_temperature;BME280_humidity;BME280_pressure;Samples;Min_cycle;Max_cycle;Signal;HPM_P1;HPM_P2
2021/12/16 00:03:37;;;;;;;24.82;13.13;;;;;;;0.19;100.00;101104.20;1633476;86;21055;-76
2021/12/16 00:08:39;;;;;;;24.47;13.83;;;;;;;0.16;100.00;101103.25;1623231;88;21864;-77
2021/12/16 00:11:18;;;;;;;29.23;15.58;;;;;;;-0.01;100.00;101080.89;1622488;87;21147;-76
2021/12/16 00:30:25;;;;;;;29.37;15.75;;;;;;;0.04;100.00;101105.59;1598502;89;21174;-76
2021/12/16 00:32:47;;;;;;;26.52;13.30;;;;;;;0.05;100.00;101103.05;1596202;88;21655;-78
2021/12/16 00:35:13;;;;;;;24.72;13.55;;;;;;;0.06;100.00;101097.01;1598237;89;21052;-77
2021/12/16 00:37:41;;;;;;;28.87;15.00;;;;;;;0.01;100.00;101094.75;1598168;89;21102;-77
2021/12/16 00:40:11;;;;;;;31.45;16.42;;;;;;;-0.02;100.00;101090.81;1598624;89;21515;-76
2021/12/16 00:42:43;;;;;;;28.83;16.02;;;;;;;-0.04;100.00;101092.48;1632174;86;21148;-75
2021/12/16 00:46:09;;;;;;;28.02;14.35;;;;;;;-0.03;100.00;101085.16;1665202;86;21544;-80
2021/12/16 00:49:02;;;;;;;23.18;12.18;;;;;;;-0.04;100.00;101073.06;1626297;87;21126;-79
2021/12/16 00:50:21;;;;;;;28.00;14.63;;;;;;;-0.08;100.00;101073.41;1613073;86;21111;-81
2021/12/16 00:55:48;;;;;;;24.63;12.37;;;;;;;-0.07;100.00;101067.41;1632834;87;21200;-79
2021/12/16 00:58:02;;;;;;;32.67;15.90;;;;;;;-0.08;100.00;101071.25;1629498;87;21109;-79
2021/12/16 01:00:31;;;;;;;30.05;14.03;;;;;;;-0.07;100.00;101071.69;1633720;87;21146;-79
2021/12/16 01:03:24;;;;;;;21.35;11.93;;;;;;;-0.07;100.00;101069.09;1637918;87;21693;-80
2021/12/16 01:48:03;;;;;;;26.50;14.03;;;;;;;0.11;100.00;101052.64;1752492;81;21097;-75
2021/12/16 01:50:25;;;;;;;29.90;15.13;;;;;;;0.12;100.00;101054.41;1725675;81;21556;-75
2021/12/16 01:55:42;;;;;;;28.45;14.53;;;;;;;0.15;100.00;101049.28;1755999;81;20177;-76
2021/12/16 01:58:13;;;;;;;29.75;14.90;;;;;;;0.14;100.00;101050.14;1725860;81;21608;-75
2021/12/16 02:01:09;;;;;;;;;;;;;;;0.14;100.00;101052.73;1758167;81;21045;-76
2021/12/16 02:03:41;;;;;;;32.73;16.25;;;;;;;0.13;100.00;101053.55;1754187;81;20473;-74
2021/12/16 02:08:51;;;;;;;36.08;17.70;;;;;;;0.11;100.00;101053.94;1755619;80;21651;-75
2021/12/16 02:31:17;;;;;;;39.23;18.00;;;;;;;0.13;100.00;101006.92;1742337;82;21455;-78
2021/12/16 02:36:21;;;;;;;43.98;20.23;;;;;;;0.11;100.00;100985.73;1742208;82;21100;-79
2021/12/16 02:38:34;;;;;;;39.00;18.52;;;;;;;0.05;100.00;100982.61;1739349;82;21847;-75
2021/12/16 02:41:01;;;;;;;40.17;18.77;;;;;;;-0.01;100.00;100991.55;1742168;82;21644;-76
2021/12/16 02:48:41;;;;;;;;;;;;;;;0.07;100.00;100984.81;1716592;82;21119;-77
2021/12/16 02:51:15;;;;;;;43.65;19.05;;;;;;;0.06;100.00;100978.30;1706281;84;21145;-77
2021/12/16 02:53:49;;;;;;;40.75;19.15;;;;;;;0.02;100.00;100979.94;1685826;84;21044;-75
2021/12/16 02:56:16;;;;;;;36.25;16.32;;;;;;;0.03;100.00;100988.18;1716464;83;21089;-75
2021/12/16 02:58:47;;;;;;;37.80;17.95;;;;;;;0.03;100.00;100981.70;1727574;83;21056;-77
2021/12/16 03:01:31;;;;;;;38.00;17.80;;;;;;;0.02;100.00;100978.64;1709066;83;21574;-78
2021/12/16 03:04:00;;;;;;;38.02;17.60;;;;;;;0.09;100.00;100982.23;1727362;83;21150;-74
2021/12/16 03:06:29;;;;;;;39.67;18.00;;;;;;;0.07;100.00;100974.45;1727719;83;21087;-73
2021/12/16 03:08:58;;;;;;;40.98;18.67;;;;;;;0.06;100.00;100980.45;1727445;83;21059;-77
2021/12/16 03:16:58;;;;;;;48.52;20.68;;;;;;;0.13;100.00;100984.05;1727523;83;21246;-76
2021/12/16 03:19:23;;;;;;;34.38;17.15;;;;;;;0.11;100.00;100989.18;1725337;82;21056;-75
2021/12/16 03:21:50;;;;;;;46.00;20.43;;;;;;;0.05;100.00;100977.44;1726242;82;21613;-76
2021/12/16 03:24:38;;;;;;;42.15;20.45;;;;;;;0.13;100.00;100988.80;1727105;82;21615;-77
2021/12/16 03:37:18;;;;;;;44.75;20.12;;;;;;;0.22;100.00;100979.03;1721546;82;21084;-77
2021/12/16 03:40:10;;;;;;;39.03;17.45;;;;;;;0.19;100.00;100973.81;1742185;82;21075;-75
2021/12/16 03:42:49;;;;;;;34.60;17.23;;;;;;;0.14;100.00;100972.42;1741222;82;21821;-76
2021/12/16 03:48:18;;;;;;;41.48;18.05;;;;;;;0.14;100.00;100969.84;1717632;82;21042;-74
2021/12/16 03:50:44;;;;;;;42.40;18.27;;;;;;;0.09;100.00;100958.52;1723508;82;21142;-76
2021/12/16 03:53:16;;;;;;;52.50;20.82;;;;;;;0.03;100.00;100946.74;1724905;82;21104;-77
2021/12/16 03:55:45;;;;;;;40.33;17.95;;;;;;;0.03;100.00;100944.16;1711423;82;21172;-79
2021/12/16 03:58:13;;;;;;;40.20;18.27;;;;;;;0.03;100.00;100945.45;1741971;82;20967;-78
2021/12/16 04:00:46;;;;;;;44.63;20.88;;;;;;;0.08;100.00;100941.65;1721020;82;21070;-79
2021/12/16 04:03:13;;;;;;;45.95;19.23;;;;;;;0.09;100.00;100939.09;1741883;82;21039;-78
2021/12/16 04:05:42;;;;;;;45.70;21.25;;;;;;;0.06;100.00;100942.04;1741848;82;21047;-78
2021/12/16 04:08:10;;;;;;;42.23;19.25;;;;;;;0.06;100.00;100941.61;1716884;82;21748;-78
2021/12/16 04:10:53;;;;;;;43.63;18.70;;;;;;;0.11;100.00;100939.11;1678346;85;21060;-77
2021/12/16 04:13:19;;;;;;;46.55;20.43;;;;;;;0.15;100.00;100937.89;1693625;83;21056;-76
2021/12/16 04:15:48;;;;;;;40.88;17.52;;;;;;;0.20;100.00;100932.37;1687162;84;21041;-77
2021/12/16 04:18:15;;;;;;;41.98;18.85;;;;;;;0.18;100.00;100929.30;1687007;84;21116;-78
2021/12/16 04:20:45;;;;;;;45.43;19.70;;;;;;;0.15;100.00;100928.83;1722106;83;21109;-77
2021/12/16 04:23:12;;;;;;;40.35;17.50;;;;;;;0.08;100.00;100924.38;1721985;83;21508;-77
2021/12/16 04:25:42;;;;;;;44.40;21.15;;;;;;;0.02;100.00;100928.58;1722153;83;21080;-75
2021/12/16 04:28:22;;;;;;;41.90;18.85;;;;;;;0.00;100.00;100920.80;1722234;83;21052;-75
2021/12/16 04:30:50;;;;;;;44.25;19.80;;;;;;;-0.01;100.00;100919.03;1722393;83;21068;-75
2021/12/16 04:33:17;;;;;;;46.40;20.97;;;;;;;-0.06;100.00;100915.06;1721697;83;22359;-74
2021/12/16 04:35:44;;;;;;;49.88;21.23;;;;;;;-0.04;100.00;100922.88;1722102;83;21087;-75
2021/12/16 04:38:12;;;;;;;50.20;22.10;;;;;;;-0.07;100.00;100912.04;1717242;82;21091;-75
2021/12/16 04:40:39;;;;;;;49.50;22.80;;;;;;;-0.08;100.00;100916.75;1729469;81;21112;-75
2021/12/16 04:43:07;;;;;;;54.73;23.90;;;;;;;-0.04;100.00;100916.40;1751792;81;21548;-75
2021/12/16 04:45:36;;;;;;;51.53;23.52;;;;;;;-0.03;100.00;100919.00;1736285;81;21185;-74
2021/12/16 04:48:06;;;;;;;50.15;21.33;;;;;;;0.00;100.00;100914.33;1752014;80;21077;-77
2021/12/16 04:50:34;;;;;;;40.10;18.17;;;;;;;-0.02;100.00;100913.42;1752345;80;28757;-76
2021/12/16 04:53:01;;;;;;;42.38;19.30;;;;;;;0.02;100.00;100912.61;1726969;81;21142;-78
2021/12/16 04:55:29;;;;;;;39.00;17.52;;;;;;;0.04;100.00;100909.62;1729856;80;21055;-74
2021/12/16 04:57:56;;;;;;;49.55;22.90;;;;;;;0.03;100.00;100916.09;1749332;80;21142;-71
2021/12/16 05:00:24;;;;;;;44.27;19.90;;;;;;;0.07;100.00;100914.88;1707112;80;21506;-71
2021/12/16 05:02:53;;;;;;;45.80;20.00;;;;;;;0.04;100.00;100912.22;1767811;80;21034;-71
2021/12/16 05:05:28;;;;;;;46.48;19.42;;;;;;;0.02;100.00;100912.61;1747976;80;21606;-71
2021/12/16 05:07:54;;;;;;;51.10;21.60;;;;;;;0.04;100.00;100917.39;1751259;80;21074;-71
2021/12/16 05:10:23;;;;;;;45.85;20.88;;;;;;;0.01;100.00;100916.48;1751129;81;21586;-72
2021/12/16 05:12:56;;;;;;;48.30;20.10;;;;;;;0.02;100.00;100919.08;1749521;81;21093;-69
2021/12/16 05:15:29;;;;;;;46.15;19.75;;;;;;;0.05;100.00;100915.27;1741234;82;21050;-70
2021/12/16 05:17:58;;;;;;;48.60;20.57;;;;;;;0.04;100.00;100913.51;1741638;82;21066;-71
2021/12/16 05:20:31;;;;;;;45.30;19.85;;;;;;;0.03;100.00;100905.73;1741121;82;21074;-72
2021/12/16 05:26:15;;;;;;;49.45;19.85;;;;;;;0.02;100.00;100917.78;1741986;82;21371;-71
2021/12/16 05:28:29;;;;;;;44.67;19.42;;;;;;;0.07;100.00;100925.25;1737805;82;21089;-73
2021/12/16 05:30:58;;;;;;;51.80;20.95;;;;;;;0.08;100.00;100928.27;1723218;82;21542;-72
2021/12/16 05:33:26;;;;;;;52.98;22.87;;;;;;;0.05;100.00;100921.75;1735906;82;21340;-73
2021/12/16 05:35:54;;;;;;;54.05;22.85;;;;;;;0.05;100.00;100923.05;1732187;82;21157;-71
2021/12/16 05:38:21;;;;;;;56.58;23.22;;;;;;;0.07;100.00;100925.64;1713089;82;21565;-71
2021/12/16 05:40:48;;;;;;;54.03;22.40;;;;;;;0.05;100.00;100919.16;1716587;82;21054;-72
2021/12/16 05:43:19;;;;;;;53.78;22.27;;;;;;;0.06;100.00;100923.91;1740003;82;21127;-71
2021/12/16 05:45:45;;;;;;;58.80;25.25;;;;;;;0.06;100.00;100918.30;1741706;82;21086;-71
2021/12/16 05:48:16;;;;;;;53.17;23.05;;;;;;;0.04;100.00;100911.35;1754415;80;21598;-71
2021/12/16 05:50:46;;;;;;;46.13;21.23;;;;;;;0.04;100.00;100909.62;1739875;80;21040;-71
2021/12/16 05:53:13;;;;;;;52.67;21.70;;;;;;;0.02;100.00;100904.84;1706340;84;21589;-72
2021/12/16 05:55:41;;;;;;;42.88;19.07;;;;;;;0.07;100.00;100906.22;1742670;80;21151;-70
2021/12/16 05:58:18;;;;;;;43.73;20.48;;;;;;;0.05;100.00;100897.58;1735046;80;21047;-71
2021/12/16 06:00:46;;;;;;;49.30;20.82;;;;;;;0.03;100.00;100904.02;1730038;81;23113;-72
2021/12/16 06:03:14;;;;;;;43.08;19.32;;;;;;;0.05;100.00;100890.67;1711961;83;21108;-72
2021/12/16 06:05:42;;;;;;;57.90;23.07;;;;;;;0.02;100.00;100893.19;1723456;81;21588;-72
2021/12/16 06:08:10;;;;;;;52.23;22.20;;;;;;;-0.01;100.00;100885.38;1726360;79;21122;-73
2021/12/16 06:11:13;;;;;;;57.67;24.02;;;;;;;-0.02;100.00;100883.64;1715802;82;21041;-72
2021/12/16 06:13:12;;;;;;;57.33;24.52;;;;;;;-0.02;100.00;100884.94;1718006;82;21735;-73
2021/12/16 06:22:19;;;;;;;57.70;26.37;;;;;;;0.02;100.00;100882.83;1738084;82;21050;-73
2021/12/16 06:26:36;;;;;;;50.28;21.05;;;;;;;0.10;100.00;100865.72;1749634;82;21887;-72
2021/12/16 06:29:00;;;;;;;45.85;19.73;;;;;;;0.08;100.00;100862.22;1748570;82;21136;-72
2021/12/16 06:31:26;;;;;;;42.58;18.80;;;;;;;0.10;100.00;100868.31;1749681;82;21060;-72
2021/12/16 06:33:53;;;;;;;45.12;19.20;;;;;;;0.09;100.00;100863.98;1749150;82;21065;-72
2021/12/16 06:36:21;;;;;;;46.35;20.27;;;;;;;0.08;100.00;100854.45;1749365;80;21137;-73
2021/12/16 06:38:48;;;;;;;45.85;19.67;;;;;;;0.12;100.00;100856.26;1749389;82;22164;-71
2021/12/16 06:41:20;;;;;;;53.00;21.45;;;;;;;0.13;100.00;100846.33;1741784;81;21123;-73
2021/12/16 06:43:48;;;;;;;44.60;19.85;;;;;;;0.22;100.00;100848.64;1747780;82;21506;-72
2021/12/16 06:46:18;;;;;;;42.03;19.73;;;;;;;0.28;100.00;100849.62;1720112;82;21149;-72
2021/12/16 06:48:47;;;;;;;46.58;20.05;;;;;;;0.33;100.00;100853.15;1749482;82;21056;-72
2021/12/16 06:51:20;;;;;;;44.53;19.40;;;;;;;0.61;100.00;100851.86;1743978;81;22085;-74
2021/12/16 06:54:26;;;;;;;46.68;19.32;;;;;;;0.68;100.00;100846.77;1740774;82;21041;-70
2021/12/16 06:56:28;;;;;;;50.35;20.15;;;;;;;0.86;100.00;100848.77;1728053;81;21086;-73
2021/12/16 06:59:03;;;;;;;43.05;18.90;;;;;;;0.98;100.00;100851.08;1744154;82;21070;-72
2021/12/16 07:01:38;;;;;;;48.17;20.00;;;;;;;1.00;100.00;100845.49;1747383;80;21056;-71
2021/12/16 07:03:55;;;;;;;40.30;17.62;;;;;;;1.02;100.00;100854.61;1755655;80;21560;-70
2021/12/16 07:06:28;;;;;;;43.13;18.42;;;;;;;0.95;100.00;100844.56;1763454;80;21078;-70
2021/12/16 07:09:00;;;;;;;44.93;19.00;;;;;;;0.90;100.00;100845.34;1760432;80;21572;-70
2021/12/16 07:11:30;;;;;;;46.30;19.23;;;;;;;0.89;100.00;100847.06;1746443;81;21085;-70
2021/12/16 07:14:01;;;;;;;43.52;18.77;;;;;;;0.84;100.00;100843.55;1726853;81;21110;-71
2021/12/16 07:16:28;;;;;;;51.65;20.72;;;;;;;0.82;100.00;100833.58;1740125;80;21129;-70
2021/12/16 07:18:56;;;;;;;41.70;18.32;;;;;;;0.82;100.00;100834.88;1733793;80;21395;-71
2021/12/16 07:21:23;;;;;;;54.03;19.67;;;;;;;0.74;100.00;100832.61;1713822;82;21115;-70
2021/12/16 07:23:51;;;;;;;45.52;18.73;;;;;;;0.68;100.00;100836.41;1730677;82;21034;-70
2021/12/16 07:26:17;;;;;;;48.83;19.15;;;;;;;0.67;100.00;100830.75;1731978;82;21082;-71
2021/12/16 07:28:44;;;;;;;42.73;18.05;;;;;;;0.67;100.00;100833.34;1726331;81;21568;-70
2021/12/16 07:31:10;;;;;;;38.95;17.35;;;;;;;0.69;100.00;100824.77;1726995;81;21063;-70
2021/12/16 07:33:38;;;;;;;49.58;19.07;;;;;;;0.69;100.00;100814.80;1730798;81;21094;-70
2021/12/16 07:36:05;;;;;;;42.15;18.35;;;;;;;0.70;100.00;100812.67;1686613;83;21091;-70
2021/12/16 07:38:32;;;;;;;40.58;18.80;;;;;;;0.72;100.00;100810.54;1719795;82;21677;-73
2021/12/16 07:40:58;;;;;;;47.85;20.05;;;;;;;0.69;100.00;100805.33;1725735;82;21463;-69
2021/12/16 07:46:14;;;;;;;46.98;18.67;;;;;;;0.69;100.00;100802.73;1727489;81;21556;-68
2021/12/16 07:48:41;;;;;;;48.95;20.60;;;;;;;0.76;100.00;100807.55;1723468;81;21612;-70
2021/12/16 07:51:07;;;;;;;53.52;19.02;;;;;;;0.77;100.00;100806.28;1727817;80;21662;-71
2021/12/16 07:53:35;;;;;;;46.63;19.80;;;;;;;0.75;100.00;100804.52;1733985;81;21146;-71
2021/12/16 07:56:02;;;;;;;45.30;20.50;;;;;;;0.78;100.00;100798.97;1731162;81;21018;-70
2021/12/16 07:58:29;;;;;;;44.30;18.42;;;;;;;0.83;100.00;100799.03;1718922;81;21051;-69
2021/12/16 08:00:56;;;;;;;43.48;20.25;;;;;;;0.86;100.00;100795.17;1738332;80;21105;-71
2021/12/16 08:03:26;;;;;;;44.88;20.65;;;;;;;0.92;100.00;100790.08;1720908;82;21055;-69
2021/12/16 08:05:58;;;;;;;57.83;22.83;;;;;;;0.92;100.00;100790.08;1708712;82;21146;-70
2021/12/16 08:08:24;;;;;;;49.95;21.62;;;;;;;0.91;100.00;100793.50;1733037;80;21392;-70
2021/12/16 08:10:52;;;;;;;55.40;22.17;;;;;;;0.95;100.00;100790.11;1722507;80;21068;-70
2021/12/16 08:13:18;;;;;;;47.70;20.75;;;;;;;0.94;100.00;100794.83;1747364;80;21074;-71
2021/12/16 08:15:45;;;;;;;50.52;22.35;;;;;;;0.96;100.00;100790.97;1737995;81;22003;-71
2021/12/16 08:18:13;;;;;;;44.60;19.30;;;;;;;0.95;100.00;100789.23;1751053;80;21105;-71
2021/12/16 08:20:39;;;;;;;51.65;22.48;;;;;;;0.97;100.00;100793.59;1747095;81;21563;-70
2021/12/16 08:23:06;;;;;;;58.20;24.00;;;;;;;1.03;100.00;100786.30;1740654;80;21081;-70
2021/12/16 08:25:34;;;;;;;62.53;25.82;;;;;;;1.01;100.00;100783.70;1748654;80;21128;-71
2021/12/16 08:28:03;;;;;;;52.75;24.40;;;;;;;1.01;100.00;100786.70;1754738;80;21061;-71
2021/12/16 08:30:33;;;;;;;50.23;21.95;;;;;;;1.00;100.00;100779.35;1755994;80;21430;-70
2021/12/16 08:33:04;;;;;;;59.25;22.55;;;;;;;1.02;100.00;100778.95;1752263;80;21053;-71
2021/12/16 08:35:28;;;;;;;57.85;22.75;;;;;;;1.04;100.00;100770.77;1747761;80;21045;-71
2021/12/16 08:37:54;;;;;;;57.62;24.95;;;;;;;1.01;100.00;100774.62;1736433;82;21668;-71
2021/12/16 08:40:22;;;;;;;53.45;24.05;;;;;;;1.00;100.00;100771.57;1737608;80;20979;-71
2021/12/16 08:42:49;;;;;;;52.20;23.77;;;;;;;1.04;100.00;100762.98;1750274;80;21809;-70
2021/12/16 08:45:23;;;;;;;65.85;26.35;;;;;;;1.05;100.00;100760.82;1733414;82;21561;-71
2021/12/16 08:47:50;;;;;;;54.40;24.95;;;;;;;1.12;100.00;100763.50;1731398;82;21154;-70
2021/12/16 08:50:19;;;;;;;63.78;27.98;;;;;;;1.11;100.00;100753.55;1738509;82;21277;-70
2021/12/16 08:52:46;;;;;;;61.88;27.25;;;;;;;1.09;100.00;100746.61;1730588;81;21061;-70
2021/12/16 08:55:13;;;;;;;60.33;25.55;;;;;;;1.11;100.00;100738.42;1727153;82;21064;-71
2021/12/16 08:57:39;;;;;;;70.62;30.32;;;;;;;1.08;100.00;100735.77;1741305;82;21517;-70
2021/12/16 09:00:14;;;;;;;61.83;27.00;;;;;;;1.09;100.00;100732.34;1740683;82;21053;-71
2021/12/16 09:02:40;;;;;;;64.85;26.85;;;;;;;1.12;100.00;100730.63;1729464;80;21102;-70
2021/12/16 09:05:07;;;;;;;64.95;27.42;;;;;;;1.12;100.00;100720.69;1748350;80;21062;-72
2021/12/16 09:07:34;;;;;;;50.15;21.25;;;;;;;1.25;100.00;100721.27;1743120;80;21512;-69
2021/12/16 09:10:00;;;;;;;63.68;27.37;;;;;;;1.28;100.00;100718.70;1721671;81;21558;-70
2021/12/16 09:14:56;;;;;;;59.70;27.22;;;;;;;1.40;100.00;100714.95;1732892;82;21054;-70
2021/12/16 09:17:24;;;;;;;69.95;30.12;;;;;;;1.35;100.00;100707.52;1743832;82;21142;-69
2021/12/16 09:19:52;;;;;;;55.83;25.17;;;;;;;1.39;100.00;100700.22;1743820;82;21234;-67
2021/12/16 09:22:22;;;;;;;61.88;27.35;;;;;;;1.39;100.00;100697.62;1746239;82;21076;-67
2021/12/16 09:24:49;;;;;;;60.40;27.07;;;;;;;1.36;100.00;100698.90;1777839;80;21076;-69
2021/12/16 09:27:16;;;;;;;60.45;24.98;;;;;;;1.42;100.00;100696.34;1757405;80;21085;-70
2021/12/16 09:29:43;;;;;;;65.08;27.85;;;;;;;1.43;100.00;100691.61;1744771;80;21121;-68
2021/12/16 09:32:10;;;;;;;62.58;27.55;;;;;;;1.48;100.00;100680.41;1737974;80;21218;-69
2021/12/16 09:34:38;;;;;;;65.10;27.87;;;;;;;1.50;100.00;100672.20;1737443;82;21096;-69
2021/12/16 09:37:04;;;;;;;65.87;28.57;;;;;;;1.48;100.00;100672.62;1740070;82;21635;-68
2021/12/16 09:39:32;;;;;;;63.52;25.65;;;;;;;1.46;100.00;100674.75;1743948;80;21082;-72
2021/12/16 09:41:58;;;;;;;63.25;30.65;;;;;;;1.42;100.00;100670.38;1746042;80;21029;-69
2021/12/16 09:44:26;;;;;;;63.40;28.52;;;;;;;1.41;100.00;100660.02;1751558;80;21152;-68
2021/12/16 09:46:55;;;;;;;60.12;27.15;;;;;;;1.45;100.00;100660.05;1740043;80;21057;-70
2021/12/16 09:49:22;;;;;;;64.58;29.00;;;;;;;1.46;100.00;100646.20;1745901;80;21105;-70
2021/12/16 09:51:52;;;;;;;57.95;27.40;;;;;;;1.45;100.00;100644.48;1752258;80;21554;-70
2021/12/16 09:54:24;;;;;;;67.55;30.88;;;;;;;1.46;100.00;100643.61;1742758;80;21568;-69
2021/12/16 09:56:52;;;;;;;74.20;31.87;;;;;;;1.50;100.00;100641.06;1752940;80;21146;-68
2021/12/16 09:59:20;;;;;;;76.45;31.75;;;;;;;1.46;100.00;100635.82;1750675;80;21088;-69
2021/12/16 10:01:49;;;;;;;73.10;30.60;;;;;;;1.44;100.00;100640.13;1740610;82;21124;-72
2021/12/16 10:04:19;;;;;;;65.67;30.00;;;;;;;1.43;100.00;100632.34;1743933;80;21564;-71
2021/12/16 10:06:46;;;;;;;66.07;30.17;;;;;;;1.45;100.00;100627.61;1718962;82;21112;-72
2021/12/16 10:09:13;;;;;;;69.53;31.20;;;;;;;1.48;100.00;100624.16;1747824;82;21058;-70
2021/12/16 10:11:43;;;;;;;65.55;29.18;;;;;;;1.52;100.00;100613.36;1749912;82;21055;-69
2021/12/16 10:19:27;;;;;;;60.80;29.23;;;;;;;1.88;100.00;100598.02;1732738;82;21132;-70
2021/12/16 10:21:55;;;;;;;68.33;29.95;;;;;;;1.91;100.00;100601.50;1735724;82;21527;-72
2021/12/16 10:24:25;;;;;;;64.27;29.52;;;;;;;2.03;100.00;100599.00;1734375;82;21064;-71
2021/12/16 10:27:13;;;;;;;57.83;27.17;;;;;;;2.03;100.00;100599.00;1732304;82;22323;-70
2021/12/16 10:29:51;;;;;;;67.17;29.12;;;;;;;2.02;100.00;100599.84;1728349;82;21571;-70
2021/12/16 10:32:43;;;;;;;69.10;29.45;;;;;;;2.07;100.00;100598.12;1733725;82;21597;-69
2021/12/16 10:35:24;;;;;;;67.05;28.67;;;;;;;2.01;100.00;100591.19;1739195;82;21138;-70
2021/12/16 10:37:53;;;;;;;;;;;;;;;1.96;100.00;100587.70;1731312;82;21084;-68
2021/12/16 10:40:49;;;;;;;66.25;28.65;;;;;;;1.92;100.00;100590.27;1729601;82;20493;-71
2021/12/16 10:43:33;;;;;;;58.02;27.48;;;;;;;1.88;100.00;100586.34;1741515;80;21053;-70
2021/12/16 10:46:08;;;;;;;60.92;28.60;;;;;;;1.93;100.00;100586.80;1710004;83;21151;-70
2021/12/16 10:48:41;;;;;;;63.40;29.15;;;;;;;1.97;100.00;100580.77;1706328;84;21134;-70
2021/12/16 10:51:36;;;;;;;63.73;27.40;;;;;;;1.97;100.00;100580.77;1716202;82;21065;-71
2021/12/16 10:54:26;;;;;;;62.20;28.20;;;;;;;1.99;100.00;100573.86;1735927;82;21033;-70
2021/12/16 10:57:09;;;;;;;59.03;26.97;;;;;;;1.99;100.00;100581.65;1723988;82;21022;-70
2021/12/16 10:59:48;;;;;;;57.98;28.38;;;;;;;2.01;100.00;100573.44;1718507;82;21080;-69
2021/12/16 11:02:24;;;;;;;60.30;26.82;;;;;;;2.06;100.00;100570.42;1737465;82;21130;-71
2021/12/16 11:05:19;;;;;;;65.08;28.57;;;;;;;2.11;100.00;100563.51;1761886;80;21084;-70
2021/12/16 11:07:49;;;;;;;64.85;29.60;;;;;;;2.11;100.00;100563.51;1713323;80;21575;-71
2021/12/16 11:10:27;;;;;;;62.08;27.98;;;;;;;2.08;100.00;100555.72;1724838;82;21051;-71
2021/12/16 11:13:08;;;;;;;61.85;27.62;;;;;;;2.07;100.00;100552.66;1723012;82;21054;-71
2021/12/16 11:15:45;;;;;;;56.60;27.55;;;;;;;2.10;100.00;100549.66;1681025;84;21173;-70
2021/12/16 11:18:23;;;;;;;59.77;26.15;;;;;;;2.16;100.00;100541.00;1683453;84;21153;-75
2021/12/16 11:21:05;;;;;;;58.35;25.95;;;;;;;2.16;100.00;100541.00;1690362;83;21080;-71
2021/12/16 11:23:38;;;;;;;59.27;27.85;;;;;;;2.27;100.00;100541.91;1686942;84;21115;-70
2021/12/16 11:26:14;;;;;;;52.62;24.47;;;;;;;2.29;100.00;100541.93;1742292;80;21030;-69
2021/12/16 11:28:48;;;;;;;57.03;26.48;;;;;;;2.27;100.00;100541.91;1764842;80;21066;-69
2021/12/16 11:31:19;;;;;;;56.25;26.45;;;;;;;2.30;100.00;100538.05;1745024;82;21089;-71
2021/12/16 11:33:49;;;;;;;57.35;27.58;;;;;;;2.31;100.00;100533.27;1735399;82;26841;-70
2021/12/16 11:36:26;;;;;;;60.87;27.20;;;;;;;2.33;100.00;100529.39;1729615;82;21082;-70
2021/12/16 11:39:14;;;;;;;55.05;25.43;;;;;;;2.38;100.00;100531.56;1743628;80;21061;-70
2021/12/16 11:41:48;;;;;;;64.95;26.93;;;;;;;2.38;100.00;100523.77;1743878;80;21962;-69
2021/12/16 11:44:34;;;;;;;56.75;27.17;;;;;;;2.37;100.00;100518.55;1749062;80;21045;-70
2021/12/16 11:47:14;;;;;;;57.30;26.05;;;;;;;2.39;100.00;100514.23;1759047;80;21524;-70
2021/12/16 11:49:46;;;;;;;63.77;28.23;;;;;;;2.38;100.00;100516.41;1743477;80;21336;-69
2021/12/16 11:52:26;;;;;;;63.80;27.67;;;;;;;2.41;100.00;100511.20;1739992;81;21204;-73
2021/12/16 11:55:00;;;;;;;54.38;24.75;;;;;;;2.45;100.00;100511.66;1719969;83;21104;-70
2021/12/16 11:57:34;;;;;;;60.28;28.60;;;;;;;2.51;100.00;100509.08;1734214;81;21153;-73
2021/12/16 12:00:09;;;;;;;51.00;23.98;;;;;;;2.51;100.00;100509.08;1740402;80;21850;-71
2021/12/16 12:02:48;;;;;;;56.33;25.43;;;;;;;2.54;100.00;100511.67;1746193;80;22253;-73
2021/12/16 12:05:26;;;;;;;50.00;23.47;;;;;;;2.55;100.00;100495.20;1736102;80;21102;-72
2021/12/16 12:08:16;;;;;;;63.48;27.42;;;;;;;2.57;100.00;100497.80;1741438;80;21170;-71
2021/12/16 12:11:02;;;;;;;61.50;26.97;;;;;;;2.61;100.00;100501.71;1734233;81;22208;-71
2021/12/16 12:13:37;;;;;;;66.40;29.87;;;;;;;2.62;100.00;100494.36;1736333;81;21083;-71
2021/12/16 12:16:16;;;;;;;58.10;26.90;;;;;;;2.61;100.00;100491.75;1753013;80;21551;-70
2021/12/16 12:18:57;;;;;;;57.62;25.68;;;;;;;2.52;100.00;100483.06;1744974;82;21080;-70
2021/12/16 12:21:46;;;;;;;65.32;29.85;;;;;;;2.52;100.00;100483.06;1746873;80;23161;-70
2021/12/16 12:24:17;;;;;;;58.00;27.07;;;;;;;2.55;100.00;100484.80;1738118;80;21073;-70
2021/12/16 12:26:57;;;;;;;62.70;26.45;;;;;;;2.54;100.00;100480.47;1746071;80;21118;-69
2021/12/16 12:29:33;;;;;;;60.40;28.05;;;;;;;2.51;100.00;100477.87;1745626;80;21091;-69
2021/12/16 12:32:18;;;;;;;56.23;25.95;;;;;;;2.54;100.00;100479.61;1772466;80;21104;-69
2021/12/16 12:34:53;;;;;;;54.83;26.50;;;;;;;2.54;100.00;100472.67;1747872;80;21160;-72
2021/12/16 12:37:21;;;;;;;61.85;28.57;;;;;;;2.52;100.00;100466.60;1739882;80;21078;-69
2021/12/16 12:39:53;;;;;;;56.98;26.70;;;;;;;2.54;100.00;100464.88;1750303;80;21158;-70
2021/12/16 12:42:20;;;;;;;68.83;30.40;;;;;;;2.54;100.00;100461.41;1745570;80;21675;-71
2021/12/16 12:44:47;;;;;;;68.05;29.20;;;;;;;2.51;100.00;100449.28;1744857;80;21086;-71
2021/12/16 12:47:18;;;;;;;60.60;27.75;;;;;;;2.47;100.00;100452.73;1743357;80;21489;-72
2021/12/16 12:49:45;;;;;;;61.40;28.47;;;;;;;2.45;100.00;100441.47;1752028;80;21081;-71
2021/12/16 12:52:18;;;;;;;71.72;29.80;;;;;;;2.44;100.00;100442.31;1744461;80;21731;-70
2021/12/16 12:54:58;;;;;;;61.63;29.18;;;;;;;2.42;100.00;100434.53;1745661;80;21061;-70
2021/12/16 12:57:29;;;;;;;66.12;28.67;;;;;;;2.42;100.00;100434.53;1754156;80;21429;-69
2021/12/16 12:59:56;;;;;;;67.12;27.55;;;;;;;2.47;100.00;100439.73;1748983;80;21151;-72
2021/12/16 13:02:34;;;;;;;67.75;29.42;;;;;;;2.48;100.00;100431.06;1734845;80;21081;-71
2021/12/16 13:05:16;;;;;;;72.03;29.52;;;;;;;2.44;100.00;100431.91;1735539;80;21094;-69
2021/12/16 13:08:03;;;;;;;61.88;27.17;;;;;;;2.47;100.00;100434.10;1738905;80;21108;-70
2021/12/16 13:10:44;;;;;;;67.40;29.52;;;;;;;2.47;100.00;100430.64;1740745;82;21040;-70
2021/12/16 13:13:32;;;;;;;78.33;32.25;;;;;;;2.48;100.00;100427.16;1739198;82;21152;-69
2021/12/16 13:31:33;;;;;;;69.77;29.30;;;;;;;2.55;100.00;100444.49;1803307;79;22551;-70
2021/12/16 13:33:59;;;;;;;91.15;36.13;;;;;;;2.50;100.00;100447.09;1753316;80;21061;-71
2021/12/16 13:36:48;;;;;;;82.25;33.23;;;;;;;2.50;100.00;100447.09;1704684;81;22321;-78
2021/12/16 13:39:23;;;;;;;80.90;32.53;;;;;;;2.50;100.00;100444.93;1740846;81;21061;-74
2021/12/16 13:42:07;;;;;;;78.50;33.53;;;;;;;2.50;100.00;100444.93;1744215;81;21071;-75
2021/12/16 13:44:52;;;;;;;75.12;31.42;;;;;;;2.55;100.00;100435.39;1735146;81;21038;-76
2021/12/16 13:47:35;;;;;;;72.00;30.55;;;;;;;2.55;100.00;100435.39;1735872;81;21072;-77
2021/12/16 14:01:59;;;;;;;80.15;32.30;;;;;;;2.60;100.00;100440.59;1733429;81;21152;-74
2021/12/16 14:04:13;;;;;;;69.92;30.40;;;;;;;2.64;100.00;100446.23;1728961;81;21211;-74
2021/12/16 14:06:38;;;;;;;76.30;31.85;;;;;;;2.64;100.00;100447.09;1738695;81;21470;-74
2021/12/16 14:09:18;;;;;;;71.90;31.25;;;;;;;2.67;100.00;100453.63;1732992;81;21049;-75
2021/12/16 14:14:48;;;;;;;76.30;31.17;;;;;;;2.70;100.00;100450.16;1694439;81;21045;-85
2021/12/16 14:17:53;;;;;;;72.17;30.50;;;;;;;2.69;100.00;100463.59;1740439;81;21203;-80
2021/12/16 14:23:37;;;;;;;65.85;28.12;;;;;;;2.66;100.00;100451.88;1736033;81;21113;-79